Decoded Metar for PASD (SAND POINT in AK, USA) (IATA:SDP) | Meteo·Mobile Aviation Weather
aviador You're here:

PASD Decoded Metar

SAND POINT in AK, USA
Report Time2018-08-17 00:56:00
UTC Time2018-08-17 01:31:28
Flight Rules vfr VFR
Wind150° at 03 kt
W.Decomp.*RWY 13: 3.0 kt HW 0.3 kt RCW
W.Rank150° ranks 2
Current wind is below 150° avg. (8.7)
Visibility9999 m
Phenomena:N/A
Clouds:Few 017 Hf
Scattered 025 Hf
Broken 036 Hf
Expected CloudBase > 1,200 ft AGL from Temp-Dew spread
Ceiling3,600 ft
Temp10°C (ISA -5)
Dew Point07°C (82% RH)
AAT8.2°C
QNH1016 hPa
Density Alt-535 ft
Elevation23 ft
Report Wrong Elevation
Raw Report
PASD 170056Z 15003KT 10SM FEW017 SCT025 BKN036 10/07 A3000=

Extra information for PASD:More info

Metar Taf Metar & Taf Last 4 Metars F.Rules Stats Wind Profile Meteogram Temp Stats Airport Information Weather charts Add Link Nearby VenuesMetar ALERT Operation Metar Decoded Social comments

AIRNAV info for PASD